Acme, Washington
Current Conditions -  °F | °C
As of 3:53 AM on Saturday 20 Dec 2014 (Local Time) from KBLI Reporting Station
Overcast Overcast  
Wind Chill: 44°   Ceiling: 11000
Heat Index: 49°   Visibility: 10mi
Dew Point: 36°   Wind: 13mph
Humidity: 61%   Direction: 130°SE
Pressure: 29.69"   Gusts: NA
Location:  48.72°N, 122.21°W
Report Text: KBLI 201153Z AUTO 13011KT 10SM OVC110 09/02 A2969 RMK AO2 SLP060 60000 70017 T00940022 10100 20083 58036
Loading
Personal Weather Stations






























Interactive Weather Map New forecast layout! Learn more

10-Day Weather Forecast

Advertisements
Track Severe Weather on mobile